FOON/MVB METAR and TAF weather

Enter ICAO airport designator
Station Type Date Time Source
FOON METAR 2020/05/26 05:00 UTC NOAA

FOON 260500Z 00000KT 0500 FG BKN002 BKN033 22/22 Q1013


Station Type Date Time Source
FOON Decoded METAR 2020/05/26 05:00 UTC NOAA

Franceville / Mvengue, Gabon (FOON) 01-39S 013-26E
May 26, 2020 - 01:00 AM EDT / 2020.05.26 0500 UTC
Wind: Calm:0
Visibility: less than 1 mile:0
Sky conditions: mostly cloudy
Weather: fog
Temperature: 71 F (22 C)
Dew Point: 71 F (22 C)
Relative Humidity: 100%
Pressure (altimeter): 29.91 in. Hg (1013 hPa)
ob: FOON 260500Z 00000KT 0500 FG BKN002 BKN033 22/22 Q1013
cycle: 5

Station Type Date Time Source
FOON TAF 2012/02/17 18:21 UTC NOAA

TAF TAF FOON 151600Z 1518/1618 20004KT 9999 BKN006
TEMPO 1603/1607 0200 FG OVC002
BECMG 1612/1614 TS SCT015 FEW020CB BKN030

Example: see airport list